Tanamera — DH4571 — position and weather

sailwx.info

Track history (hours):
 
Tides and Currents Weather Stations Pressure Air Temp Water Temp Dewpoint Dewpoint Depression Visibility Wind Speed Wind Dir Waves Ship Positions

Tanamera

Last reported at 2018-Apr-11 21:30 UTC. Time now 2018-May-26 23:24 UTC.
Position N 18°04' W 063°05'.
Warning: this ship's position is 45 days out of date.

Length 10 m.

Type: Sailing vessel. MMSI: 211598890.

Date/timePositionNaut miles runAvg speedWind from/ knotsBaromVisibWave heightAir tempDewpointWater temp
2018-Apr-11 21:30N 18°04' W 063°05'  
2018-Apr-06 14:12N 18°04' W 063°06'0 0.0
2018-Apr-06 06:33N 18°04' W 063°06'0 3.0
2018-Apr-06 06:24N 18°05' W 063°06'2 4.0
2018-Apr-06 05:54N 18°05' W 063°08'1 3.0
2018-Apr-06 05:29N 18°05' W 063°09'1 2.7
2018-Apr-06 05:00N 18°03' W 063°09'2 4.6
2018-Apr-06 04:29N 18°01' W 063°08'3 5.4
2018-Apr-06 03:58N 17°59' W 063°06'3 5.8
2018-Apr-06 03:30N 17°57' W 063°04'3 5.3
2018-Apr-06 02:52N 17°55' W 063°02'2 5.3
2018-Apr-06 02:28N 17°53' W 063°00'78 6.1
2018-Apr-05 13:39N 16°54' W 062°07'1 6.6
2018-Apr-05 13:30N 16°53' W 062°07'3 6.8
2018-Apr-05 13:00N 16°50' W 062°05'3 6.5
2018-Apr-05 12:28N 16°48' W 062°03'3 6.4
2018-Apr-05 12:00N 16°45' W 062°01'3 5.8
2018-Apr-05 11:30N 16°42' W 061°60'3 5.6
2018-Apr-05 10:59N 16°40' W 061°59'3 5.9
2018-Apr-05 10:29N 16°37' W 061°58'3 6.0
2018-Apr-05 10:00N 16°34' W 061°57'3 6.4
2018-Apr-05 09:30N 16°32' W 061°55'  
Track history (hours):
 
Tides and Currents Weather Stations Pressure Air Temp Water Temp Dewpoint Dewpoint Depression Visibility Wind Speed Wind Dir Waves Ship Positions

Tanamera

Last reported at 2018-Apr-11 21:30 UTC. Time now 2018-May-26 23:24 UTC.
Position N 18°04' W 063°05'.
Warning: this ship's position is 45 days out of date.

Length 10 m.

Type: Sailing vessel. MMSI: 211598890.

Date/timePositionNaut miles runAvg speedWind from/ knotsBaromVisibWave heightAir tempDewpointWater temp
2018-Apr-11 21:30N 18°04' W 063°05'  
2018-Apr-06 14:12N 18°04' W 063°06'0 0.0
2018-Apr-06 06:33N 18°04' W 063°06'0 3.0
2018-Apr-06 06:24N 18°05' W 063°06'2 4.0
2018-Apr-06 05:54N 18°05' W 063°08'1 3.0
2018-Apr-06 05:29N 18°05' W 063°09'1 2.7
2018-Apr-06 05:00N 18°03' W 063°09'2 4.6
2018-Apr-06 04:29N 18°01' W 063°08'3 5.4
2018-Apr-06 03:58N 17°59' W 063°06'3 5.8
2018-Apr-06 03:30N 17°57' W 063°04'3 5.3
2018-Apr-06 02:52N 17°55' W 063°02'2 5.3
2018-Apr-06 02:28N 17°53' W 063°00'78 6.1
2018-Apr-05 13:39N 16°54' W 062°07'1 6.6
2018-Apr-05 13:30N 16°53' W 062°07'3 6.8
2018-Apr-05 13:00N 16°50' W 062°05'3 6.5
2018-Apr-05 12:28N 16°48' W 062°03'3 6.4
2018-Apr-05 12:00N 16°45' W 062°01'3 5.8
2018-Apr-05 11:30N 16°42' W 061°60'3 5.6
2018-Apr-05 10:59N 16°40' W 061°59'3 5.9
2018-Apr-05 10:29N 16°37' W 061°58'3 6.0
2018-Apr-05 10:00N 16°34' W 061°57'3 6.4
2018-Apr-05 09:30N 16°32' W 061°55'  

Dump ship's entire track history